sensor_id;sensor_type;location;lat;lon;timestamp;pressure;altitude;pressure_sealevel;temperature;humidity
68628;BME280;55611;48.602;9.490;2023-02-15T07:14:29;98110;;;2;62
68628;BME280;55611;48.602;9.490;2023-02-15T07:17:00;98110;;;2.1;62
68628;BME280;55611;48.602;9.490;2023-02-15T07:19:30;98110;;;2.2;62
68628;BME280;55611;48.602;9.490;2023-02-15T07:22:01;98110;;;2.2;62
68628;BME280;55611;48.602;9.490;2023-02-15T07:24:31;98110;;;2.3;62
68628;BME280;55611;48.602;9.490;2023-02-15T07:27:02;98110;;;2.5;62
68628;BME280;55611;48.602;9.490;2023-02-15T07:32:03;98110;;;2.6;62
68628;BME280;55611;48.602;9.490;2023-02-15T07:34:33;98110;;;2.6;62
68628;BME280;55611;48.602;9.490;2023-02-15T07:37:04;98110;;;2.7;62
68628;BME280;55611;48.602;9.490;2023-02-15T07:39:34;98110;;;2.8;62
68628;BME280;55611;48.602;9.490;2023-02-15T07:42:05;98110;;;2.9;62
68628;BME280;55611;48.602;9.490;2023-02-15T07:44:35;98100;;;2.9;62
68628;BME280;55611;48.602;9.490;2023-02-15T07:47:06;98100;;;3;62
68628;BME280;55611;48.602;9.490;2023-02-15T07:49:36;98100;;;3.1;62
68628;BME280;55611;48.602;9.490;2023-02-15T07:52:07;98100;;;3.2;62
68628;BME280;55611;48.602;9.490;2023-02-15T07:54:38;98100;;;3.3;62
68628;BME280;55611;48.602;9.490;2023-02-15T07:59:38;98100;;;3.4;62
68628;BME280;55611;48.602;9.490;2023-02-15T08:02:10;98100;;;3.4;62
68628;BME280;55611;48.602;9.490;2023-02-15T08:04:39;98090;;;3.5;62
68628;BME280;55611;48.602;9.490;2023-02-15T08:07:10;98090;;;3.5;62
68628;BME280;55611;48.602;9.490;2023-02-15T08:09:41;98090;;;3.6;62
68628;BME280;55611;48.602;9.490;2023-02-15T08:12:11;98090;;;3.7;62.5
68628;BME280;55611;48.602;9.490;2023-02-15T08:14:42;98090;;;3.6;62.5
68628;BME280;55611;48.602;9.490;2023-02-15T08:17:12;98090;;;3.7;62.5
68628;BME280;55611;48.602;9.490;2023-02-15T08:19:43;98090;;;3.8;62.5
68628;BME280;55611;48.602;9.490;2023-02-15T08:22:13;98090;;;3.9;62.5
68628;BME280;55611;48.602;9.490;2023-02-15T08:24:44;98100;;;3.9;62.5
68628;BME280;55611;48.602;9.490;2023-02-15T08:27:14;98090;;;3.9;63
68628;BME280;55611;48.602;9.490;2023-02-15T08:29:45;98090;;;3.9;63
68628;BME280;55611;48.602;9.490;2023-02-15T08:32:16;98090;;;3.8;63
68628;BME280;55611;48.602;9.490;2023-02-15T08:34:46;98090;;;3.7;63
68628;BME280;55611;48.602;9.490;2023-02-15T08:39:47;98090;;;3.7;63
68628;BME280;55611;48.602;9.490;2023-02-15T08:42:17;98090;;;3.7;62.5
68628;BME280;55611;48.602;9.490;2023-02-15T08:44:48;98080;;;3.8;62.5
68628;BME280;55611;48.602;9.490;2023-02-15T08:47:18;98090;;;3.9;62.5
68628;BME280;55611;48.602;9.490;2023-02-15T08:49:49;98090;;;4;63
68628;BME280;55611;48.602;9.490;2023-02-15T08:52:19;98090;;;3.9;63
68628;BME280;55611;48.602;9.490;2023-02-15T08:54:50;98090;;;3.8;63
68628;BME280;55611;48.602;9.490;2023-02-15T08:57:20;98090;;;3.9;63
68628;BME280;55611;48.602;9.490;2023-02-15T08:59:51;98090;;;4;63
68628;BME280;55611;48.602;9.490;2023-02-15T09:02:21;98090;;;4;63
68628;BME280;55611;48.602;9.490;2023-02-15T09:04:52;98090;;;4.1;63
68628;BME280;55611;48.602;9.490;2023-02-15T09:07:22;98090;;;4.2;63
68628;BME280;55611;48.602;9.490;2023-02-15T09:09:53;98090;;;4.3;63
68628;BME280;55611;48.602;9.490;2023-02-15T09:14:54;98090;;;4.5;62.5
68628;BME280;55611;48.602;9.490;2023-02-15T09:17:24;98090;;;4.7;62.5
68628;BME280;55611;48.602;9.490;2023-02-15T09:19:55;98090;;;4.8;62.5
68628;BME280;55611;48.602;9.490;2023-02-15T09:22:25;98090;;;5;62.5
68628;BME280;55611;48.602;9.490;2023-02-15T09:24:56;98090;;;5;62.5
68628;BME280;55611;48.602;9.490;2023-02-15T09:27:26;98080;;;5.1;63
68628;BME280;55611;48.602;9.490;2023-02-15T09:29:57;98080;;;5.2;63
68628;BME280;55611;48.602;9.490;2023-02-15T09:32:28;98080;;;5.3;63
68628;BME280;55611;48.602;9.490;2023-02-15T09:34:58;98080;;;5.4;63
68628;BME280;55611;48.602;9.490;2023-02-15T09:37:30;98070;;;5.5;63
68628;BME280;55611;48.602;9.490;2023-02-15T09:39:59;98070;;;5.6;63
68628;BME280;55611;48.602;9.490;2023-02-15T09:42:36;98070;;;5.7;63
68628;BME280;55611;48.602;9.490;2023-02-15T09:45:36;98070;;;5.7;63
68628;BME280;55611;48.602;9.490;2023-02-15T09:47:42;98070;;;5.7;63
68628;BME280;55611;48.602;9.490;2023-02-15T09:50:06;98060;;;5.8;63
68628;BME280;55611;48.602;9.490;2023-02-15T09:52:34;98060;;;5.9;63
68628;BME280;55611;48.602;9.490;2023-02-15T09:57:36;98070;;;6.3;63
68628;BME280;55611;48.602;9.490;2023-02-15T10:00:10;98070;;;6.3;63
68628;BME280;55611;48.602;9.490;2023-02-15T10:02:41;98070;;;6.3;63
68628;BME280;55611;48.602;9.490;2023-02-15T10:05:08;98060;;;6.4;63
68628;BME280;55611;48.602;9.490;2023-02-15T10:07:41;98070;;;6.4;63
68628;BME280;55611;48.602;9.490;2023-02-15T10:10:40;98070;;;6.5;63
68628;BME280;55611;48.602;9.490;2023-02-15T10:12:41;98060;;;6.7;63
68628;BME280;55611;48.602;9.490;2023-02-15T10:15:19;98060;;;6.8;63
68628;BME280;55611;48.602;9.490;2023-02-15T10:17:42;98050;;;6.8;63.5
68628;BME280;55611;48.602;9.490;2023-02-15T10:21:15;98050;;;6.9;63.5
68628;BME280;55611;48.602;9.490;2023-02-15T10:25:13;98040;;;7;63.5
68628;BME280;55611;48.602;9.490;2023-02-15T10:27:44;98040;;;7.1;63.5
68628;BME280;55611;48.602;9.490;2023-02-15T10:30:11;98040;;;7.2;63.5
68628;BME280;55611;48.602;9.490;2023-02-15T10:32:44;98030;;;7.4;63.5
68628;BME280;55611;48.602;9.490;2023-02-15T10:35:15;98030;;;7.4;63
68628;BME280;55611;48.602;9.490;2023-02-15T10:37:50;98020;;;7.5;63
68628;BME280;55611;48.602;9.490;2023-02-15T10:40:15;98020;;;7.6;63
68628;BME280;55611;48.602;9.490;2023-02-15T10:42:47;98020;;;7.7;63
68628;BME280;55611;48.602;9.490;2023-02-15T10:45:19;98020;;;7.8;63
68628;BME280;55611;48.602;9.490;2023-02-15T10:53:05;98020;;;7.9;63.5
68628;BME280;55611;48.602;9.490;2023-02-15T10:57:49;98010;;;8.3;63
68628;BME280;55611;48.602;9.490;2023-02-15T11:00:18;98010;;;8.5;63.5
68628;BME280;55611;48.602;9.490;2023-02-15T11:05:35;98000;;;8.8;63.5
68628;BME280;55611;48.602;9.490;2023-02-15T11:07:47;97990;;;8.8;63.5
68628;BME280;55611;48.602;9.490;2023-02-15T11:10:22;97990;;;8.9;63.5
68628;BME280;55611;48.602;9.490;2023-02-15T11:12:48;97990;;;9;63.5
68628;BME280;55611;48.602;9.490;2023-02-15T11:15:25;97980;;;9;63.5
68628;BME280;55611;48.602;9.490;2023-02-15T11:17:51;97980;;;9.1;63.5
68628;BME280;55611;48.602;9.490;2023-02-15T11:20:36;97980;;;9.2;63.5
68628;BME280;55611;48.602;9.490;2023-02-15T11:22:50;97980;;;9.4;63.5
68628;BME280;55611;48.602;9.490;2023-02-15T11:25:23;97980;;;9.6;63.5
68628;BME280;55611;48.602;9.490;2023-02-15T11:27:51;97970;;;9.7;63.5
68628;BME280;55611;48.602;9.490;2023-02-15T11:30:23;97970;;;9.7;63.5
68628;BME280;55611;48.602;9.490;2023-02-15T11:32:53;97970;;;9.7;63.5
68628;BME280;55611;48.602;9.490;2023-02-15T11:35:30;97980;;;9.8;63.5
68628;BME280;55611;48.602;9.490;2023-02-15T11:37:57;97970;;;9.9;63.5
68628;BME280;55611;48.602;9.490;2023-02-15T11:40:26;97970;;;10;63.5
68628;BME280;55611;48.602;9.490;2023-02-15T11:42:55;97960;;;10.1;63.5
68628;BME280;55611;48.602;9.490;2023-02-15T11:45:29;97960;;;10.3;63.5
68628;BME280;55611;48.602;9.490;2023-02-15T11:47:56;97960;;;10.3;63.5
68628;BME280;55611;48.602;9.490;2023-02-15T11:50:28;97960;;;10.4;63.5
68628;BME280;55611;48.602;9.490;2023-02-15T11:52:58;97960;;;10.4;63.5
68628;BME280;55611;48.602;9.490;2023-02-15T11:55:27;97960;;;10.4;63.5
68628;BME280;55611;48.602;9.490;2023-02-15T11:58:30;97950;;;10.4;63.5
68628;BME280;55611;48.602;9.490;2023-02-15T12:00:32;97950;;;10.6;63.5
68628;BME280;55611;48.602;9.490;2023-02-15T12:08:01;97940;;;10.8;63.5
68628;BME280;55611;48.602;9.490;2023-02-15T12:11:35;97940;;;10.8;63.5
68628;BME280;55611;48.602;9.490;2023-02-15T12:13:17;97940;;;11;63.5
68628;BME280;55611;48.602;9.490;2023-02-15T12:15:31;97940;;;11;63.5
68628;BME280;55611;48.602;9.490;2023-02-15T12:18:02;97940;;;11.3;63
68628;BME280;55611;48.602;9.490;2023-02-15T12:20:32;97940;;;11.3;63
68628;BME280;55611;48.602;9.490;2023-02-15T12:23:04;97940;;;11.4;63
68628;BME280;55611;48.602;9.490;2023-02-15T12:25:35;97940;;;11.5;63.5
68628;BME280;55611;48.602;9.490;2023-02-15T12:28:05;97940;;;11.7;63.5
68628;BME280;55611;48.602;9.490;2023-02-15T12:30:35;97930;;;11.9;63.5
68628;BME280;55611;48.602;9.490;2023-02-15T12:33:39;97930;;;11.9;63.5
68628;BME280;55611;48.602;9.490;2023-02-15T12:35:35;97930;;;12;63.5
68628;BME280;55611;48.602;9.490;2023-02-15T12:38:23;97930;;;12.2;63.5
68628;BME280;55611;48.602;9.490;2023-02-15T12:40:37;97930;;;12.3;63.5
68628;BME280;55611;48.602;9.490;2023-02-15T12:43:24;97930;;;12.3;63.5
68628;BME280;55611;48.602;9.490;2023-02-15T12:45:37;97930;;;12.3;63.5
68628;BME280;55611;48.602;9.490;2023-02-15T12:48:09;97930;;;12.4;63.5
68628;BME280;55611;48.602;9.490;2023-02-15T12:50:38;97920;;;12.4;63.5
68628;BME280;55611;48.602;9.490;2023-02-15T12:53:40;97910;;;12.5;63.5
68628;BME280;55611;48.602;9.490;2023-02-15T12:55:47;97920;;;12.6;63.5
68628;BME280;55611;48.602;9.490;2023-02-15T12:58:18;97920;;;12.7;63.5
68628;BME280;55611;48.602;9.490;2023-02-15T13:00:40;97910;;;12.8;63.5
68628;BME280;55611;48.602;9.490;2023-02-15T13:03:19;97910;;;12.8;63.5
68628;BME280;55611;48.602;9.490;2023-02-15T13:05:42;97910;;;12.8;63.5
68628;BME280;55611;48.602;9.490;2023-02-15T13:08:14;97910;;;12.7;63.5
68628;BME280;55611;48.602;9.490;2023-02-15T13:10:52;97900;;;12.8;63.5
68628;BME280;55611;48.602;9.490;2023-02-15T13:13:17;97900;;;12.9;63.5
68628;BME280;55611;48.602;9.490;2023-02-15T13:15:44;97900;;;12.9;63.5
68628;BME280;55611;48.602;9.490;2023-02-15T13:18:16;97900;;;12.9;63.5
68628;BME280;55611;48.602;9.490;2023-02-15T13:20:44;97900;;;13;63.5
68628;BME280;55611;48.602;9.490;2023-02-15T13:23:30;97900;;;13;63.5
68628;BME280;55611;48.602;9.490;2023-02-15T13:25:45;97890;;;13.1;63.5
68628;BME280;55611;48.602;9.490;2023-02-15T13:28:16;97880;;;13.2;63.5
68628;BME280;55611;48.602;9.490;2023-02-15T13:30:47;97880;;;13.2;63.5
68628;BME280;55611;48.602;9.490;2023-02-15T13:33:21;97880;;;13.2;63
68628;BME280;55611;48.602;9.490;2023-02-15T13:35:51;97880;;;13.2;63
68628;BME280;55611;48.602;9.490;2023-02-15T13:38:25;97880;;;13.2;63
68628;BME280;55611;48.602;9.490;2023-02-15T13:43:23;97880;;;13.3;63
68628;BME280;55611;48.602;9.490;2023-02-15T13:45:54;97880;;;13.3;63
68628;BME280;55611;48.602;9.490;2023-02-15T13:48:25;97870;;;13.3;63
68628;BME280;55611;48.602;9.490;2023-02-15T13:50:53;97870;;;13.3;63
68628;BME280;55611;48.602;9.490;2023-02-15T13:55:53;97870;;;13.5;63
68628;BME280;55611;48.602;9.490;2023-02-15T14:01:04;97860;;;13.6;63
68628;BME280;55611;48.602;9.490;2023-02-15T14:03:28;97860;;;13.6;63
68628;BME280;55611;48.602;9.490;2023-02-15T14:10:57;97860;;;13.4;63
68628;BME280;55611;48.602;9.490;2023-02-15T14:15:58;97860;;;13.3;63
68628;BME280;55611;48.602;9.490;2023-02-15T14:18:34;97860;;;13.2;63
68628;BME280;55611;48.602;9.490;2023-02-15T14:21:06;97850;;;13.2;63
68628;BME280;55611;48.602;9.490;2023-02-15T14:26:00;97860;;;13.2;63
68628;BME280;55611;48.602;9.490;2023-02-15T14:30:59;97850;;;13.1;63
68628;BME280;55611;48.602;9.490;2023-02-15T14:33:32;97850;;;13.1;63
68628;BME280;55611;48.602;9.490;2023-02-15T14:36:01;97850;;;13.2;63
68628;BME280;55611;48.602;9.490;2023-02-15T14:38:38;97860;;;13.2;63
68628;BME280;55611;48.602;9.490;2023-02-15T14:41:06;97860;;;13.3;63
68628;BME280;55611;48.602;9.490;2023-02-15T14:44:07;97860;;;13.3;63
68628;BME280;55611;48.602;9.490;2023-02-15T14:46:07;97860;;;13.4;63
68628;BME280;55611;48.602;9.490;2023-02-15T14:48:38;97860;;;13.4;63
68628;BME280;55611;48.602;9.490;2023-02-15T14:51:03;97860;;;13.3;63
68628;BME280;55611;48.602;9.490;2023-02-15T14:53:35;97860;;;13.3;63
68628;BME280;55611;48.602;9.490;2023-02-15T14:56:06;97860;;;13.4;63
68628;BME280;55611;48.602;9.490;2023-02-15T14:58:35;97860;;;13.3;63
68628;BME280;55611;48.602;9.490;2023-02-15T15:01:05;97860;;;13.3;63
68628;BME280;55611;48.602;9.490;2023-02-15T15:03:36;97860;;;13.2;63
68628;BME280;55611;48.602;9.490;2023-02-15T15:06:06;97850;;;13.2;63
68628;BME280;55611;48.602;9.490;2023-02-15T15:08:38;97860;;;13.3;63
68628;BME280;55611;48.602;9.490;2023-02-15T15:11:40;97850;;;13.3;63
68628;BME280;55611;48.602;9.490;2023-02-15T15:13:38;97860;;;13.2;63
68628;BME280;55611;48.602;9.490;2023-02-15T15:16:25;97850;;;13.2;63
68628;BME280;55611;48.602;9.490;2023-02-15T15:18:47;97850;;;13.1;63
68628;BME280;55611;48.602;9.490;2023-02-15T15:21:09;97850;;;13.1;63
68628;BME280;55611;48.602;9.490;2023-02-15T15:23:42;97850;;;13;62.5
68628;BME280;55611;48.602;9.490;2023-02-15T15:26:25;97850;;;12.9;62.5
68628;BME280;55611;48.602;9.490;2023-02-15T15:28:55;97850;;;12.9;62.5
68628;BME280;55611;48.602;9.490;2023-02-15T15:32:14;97850;;;12.8;62.5
68628;BME280;55611;48.602;9.490;2023-02-15T15:36:20;97840;;;12.4;62.5
68628;BME280;55611;48.602;9.490;2023-02-15T15:39:04;97850;;;12.1;62.5
68628;BME280;55611;48.602;9.490;2023-02-15T15:41:16;97850;;;11.8;62.5
68628;BME280;55611;48.602;9.490;2023-02-15T15:51:28;97850;;;10.9;62.5
68628;BME280;55611;48.602;9.490;2023-02-15T15:54:06;97860;;;10.9;62.5
68628;BME280;55611;48.602;9.490;2023-02-15T15:56:29;97850;;;10.7;62
68628;BME280;55611;48.602;9.490;2023-02-15T15:58:48;97850;;;10.6;62
68628;BME280;55611;48.602;9.490;2023-02-15T16:01:20;97860;;;10.5;62
68628;BME280;55611;48.602;9.490;2023-02-15T16:03:48;97860;;;10.4;62
68628;BME280;55611;48.602;9.490;2023-02-15T16:06:26;97850;;;10.2;62
68628;BME280;55611;48.602;9.490;2023-02-15T16:08:48;97850;;;10.1;62.5
68628;BME280;55611;48.602;9.490;2023-02-15T16:11:20;97850;;;10;62.5
68628;BME280;55611;48.602;9.490;2023-02-15T16:13:49;97860;;;10;62.5
68628;BME280;55611;48.602;9.490;2023-02-15T16:16:21;97860;;;9.9;62.5
68628;BME280;55611;48.602;9.490;2023-02-15T16:18:50;97860;;;9.9;62
68628;BME280;55611;48.602;9.490;2023-02-15T16:21:22;97860;;;9.8;62
68628;BME280;55611;48.602;9.490;2023-02-15T16:24:58;97860;;;9.7;62
68628;BME280;55611;48.602;9.490;2023-02-15T16:28:53;97860;;;9.4;62
68628;BME280;55611;48.602;9.490;2023-02-15T16:31:23;97860;;;9.3;62
68628;BME280;55611;48.602;9.490;2023-02-15T16:33:54;97860;;;9.2;62.5
68628;BME280;55611;48.602;9.490;2023-02-15T16:36:25;97870;;;9.1;62
68628;BME280;55611;48.602;9.490;2023-02-15T16:39:05;97870;;;9;62
68628;BME280;55611;48.602;9.490;2023-02-15T16:48:57;97880;;;8.9;62
68628;BME280;55611;48.602;9.490;2023-02-15T16:56:27;97880;;;8.7;62
68628;BME280;55611;48.602;9.490;2023-02-15T17:06:28;97900;;;8.8;62
68628;BME280;55611;48.602;9.490;2023-02-15T17:09:11;97900;;;8.8;62
68628;BME280;55611;48.602;9.490;2023-02-15T17:11:33;97900;;;8.9;62
68628;BME280;55611;48.602;9.490;2023-02-15T17:14:11;97900;;;8.8;62
68628;BME280;55611;48.602;9.490;2023-02-15T17:16:32;97910;;;8.7;62
68628;BME280;55611;48.602;9.490;2023-02-15T17:19:01;97910;;;8.7;62
68628;BME280;55611;48.602;9.490;2023-02-15T17:21:32;97910;;;8.7;62
68628;BME280;55611;48.602;9.490;2023-02-15T17:24:02;97910;;;8.7;62
68628;BME280;55611;48.602;9.490;2023-02-15T17:26:34;97910;;;8.6;62
68628;BME280;55611;48.602;9.490;2023-02-15T17:29:21;97910;;;8.6;62
68628;BME280;55611;48.602;9.490;2023-02-15T17:31:33;97910;;;8.6;62
68628;BME280;55611;48.602;9.490;2023-02-15T17:34:04;97910;;;8.6;62
68628;BME280;55611;48.602;9.490;2023-02-15T17:36:34;97910;;;8.6;62
68628;BME280;55611;48.602;9.490;2023-02-15T17:46:36;97920;;;8.7;62
68628;BME280;55611;48.602;9.490;2023-02-15T17:49:06;97920;;;8.7;62
68628;BME280;55611;48.602;9.490;2023-02-15T17:51:37;97920;;;8.7;62
68628;BME280;55611;48.602;9.490;2023-02-15T17:54:07;97920;;;8.6;62
68628;BME280;55611;48.602;9.490;2023-02-15T17:56:38;97920;;;8.6;62
68628;BME280;55611;48.602;9.490;2023-02-15T17:59:08;97920;;;8.6;62
68628;BME280;55611;48.602;9.490;2023-02-15T18:01:42;97920;;;8.6;62
68628;BME280;55611;48.602;9.490;2023-02-15T18:04:10;97920;;;8.6;62
68628;BME280;55611;48.602;9.490;2023-02-15T18:06:40;97920;;;8.6;62
68628;BME280;55611;48.602;9.490;2023-02-15T18:09:11;97920;;;8.7;62
68628;BME280;55611;48.602;9.490;2023-02-15T18:16:42;97910;;;8.6;62
68628;BME280;55611;48.602;9.490;2023-02-15T18:19:13;97920;;;8.6;62
68628;BME280;55611;48.602;9.490;2023-02-15T18:21:43;97910;;;8.6;62
68628;BME280;55611;48.602;9.490;2023-02-15T18:24:14;97910;;;8.7;62
68628;BME280;55611;48.602;9.490;2023-02-15T18:26:43;97910;;;8.7;62
68628;BME280;55611;48.602;9.490;2023-02-15T18:29:14;97910;;;8.7;62
68628;BME280;55611;48.602;9.490;2023-02-15T18:31:45;97920;;;8.7;62
68628;BME280;55611;48.602;9.490;2023-02-15T18:34:20;97910;;;8.7;62
68628;BME280;55611;48.602;9.490;2023-02-15T18:36:45;97910;;;8.7;62
68628;BME280;55611;48.602;9.490;2023-02-15T18:39:21;97910;;;8.7;62
68628;BME280;55611;48.602;9.490;2023-02-15T18:54:19;97930;;;9;62
68628;BME280;55611;48.602;9.490;2023-02-15T19:06:50;97940;;;8.3;61.5
68628;BME280;55611;48.602;9.490;2023-02-15T19:11:51;97930;;;8.3;61.5
68628;BME280;55611;48.602;9.490;2023-02-15T19:14:22;97940;;;8.1;61.5
68628;BME280;55611;48.602;9.490;2023-02-15T19:16:51;97930;;;7.9;61.5
68628;BME280;55611;48.602;9.490;2023-02-15T19:19:22;97940;;;7.8;61.5
68628;BME280;55611;48.602;9.490;2023-02-15T19:21:52;97930;;;7.7;61.5
68628;BME280;55611;48.602;9.490;2023-02-15T19:24:24;97930;;;7.7;61.5
68628;BME280;55611;48.602;9.490;2023-02-15T19:26:53;97930;;;7.6;62
68628;BME280;55611;48.602;9.490;2023-02-15T19:29:25;97930;;;7.4;61.5
68628;BME280;55611;48.602;9.490;2023-02-15T19:31:55;97930;;;7.4;61.5
68628;BME280;55611;48.602;9.490;2023-02-15T19:34:26;97930;;;7.3;61.5
68628;BME280;55611;48.602;9.490;2023-02-15T19:36:56;97930;;;7.4;61.5
68628;BME280;55611;48.602;9.490;2023-02-15T19:39:27;97920;;;7.4;61.5
68628;BME280;55611;48.602;9.490;2023-02-15T19:41:57;97920;;;7.5;62
68628;BME280;55611;48.602;9.490;2023-02-15T19:44:27;97920;;;7.5;62
68628;BME280;55611;48.602;9.490;2023-02-15T19:46:58;97920;;;7.5;62
68628;BME280;55611;48.602;9.490;2023-02-15T19:49:28;97920;;;7.3;62
68628;BME280;55611;48.602;9.490;2023-02-15T19:51:59;97920;;;7.2;62
68628;BME280;55611;48.602;9.490;2023-02-15T19:54:31;97920;;;7.1;62
68628;BME280;55611;48.602;9.490;2023-02-15T19:57:00;97920;;;7;62
68628;BME280;55611;48.602;9.490;2023-02-15T19:59:31;97920;;;6.9;62
68628;BME280;55611;48.602;9.490;2023-02-15T20:02:01;97920;;;6.9;62
68628;BME280;55611;48.602;9.490;2023-02-15T20:04:31;97920;;;6.9;61.5
68628;BME280;55611;48.602;9.490;2023-02-15T20:07:02;97920;;;6.8;61.5
68628;BME280;55611;48.602;9.490;2023-02-15T20:09:32;97910;;;6.8;61.5
68628;BME280;55611;48.602;9.490;2023-02-15T20:12:03;97910;;;6.7;61.5
68628;BME280;55611;48.602;9.490;2023-02-15T20:14:33;97910;;;6.7;62
68628;BME280;55611;48.602;9.490;2023-02-15T20:17:04;97900;;;6.7;62
68628;BME280;55611;48.602;9.490;2023-02-15T20:19:34;97900;;;6.6;62
68628;BME280;55611;48.602;9.490;2023-02-15T20:22:05;97900;;;6.6;62
68628;BME280;55611;48.602;9.490;2023-02-15T20:24:35;97890;;;6.6;62
68628;BME280;55611;48.602;9.490;2023-02-15T20:27:09;97890;;;6.7;62
68628;BME280;55611;48.602;9.490;2023-02-15T20:29:36;97890;;;6.8;62
68628;BME280;55611;48.602;9.490;2023-02-15T20:32:09;97890;;;6.8;62
68628;BME280;55611;48.602;9.490;2023-02-15T20:34:38;97890;;;6.9;62
68628;BME280;55611;48.602;9.490;2023-02-15T20:37:13;97890;;;7.1;62
68628;BME280;55611;48.602;9.490;2023-02-15T20:42:11;97880;;;7.7;62
68628;BME280;55611;48.602;9.490;2023-02-15T20:44:39;97890;;;7.9;62.5
68628;BME280;55611;48.602;9.490;2023-02-15T20:47:10;97880;;;8.3;62.5
68628;BME280;55611;48.602;9.490;2023-02-15T20:49:40;97880;;;8.3;62.5
68628;BME280;55611;48.602;9.490;2023-02-15T20:52:15;97890;;;8.2;62.5
68628;BME280;55611;48.602;9.490;2023-02-15T20:54:42;97880;;;8.1;62.5
68628;BME280;55611;48.602;9.490;2023-02-15T20:57:12;97880;;;8.3;62.5
68628;BME280;55611;48.602;9.490;2023-02-15T20:59:43;97880;;;8.1;62.5
68628;BME280;55611;48.602;9.490;2023-02-15T21:02:15;97880;;;8;62
68628;BME280;55611;48.602;9.490;2023-02-15T21:04:44;97880;;;7.7;62
68628;BME280;55611;48.602;9.490;2023-02-15T21:07:16;97890;;;7.4;62
68628;BME280;55611;48.602;9.490;2023-02-15T21:09:45;97880;;;7.1;61.5
68628;BME280;55611;48.602;9.490;2023-02-15T21:12:16;97880;;;7;61.5
68628;BME280;55611;48.602;9.490;2023-02-15T21:14:46;97870;;;6.8;61.5
68628;BME280;55611;48.602;9.490;2023-02-15T21:17:16;97870;;;6.8;61.5
68628;BME280;55611;48.602;9.490;2023-02-15T21:19:47;97860;;;6.7;61.5
68628;BME280;55611;48.602;9.490;2023-02-15T21:22:17;97860;;;6.6;61.5
68628;BME280;55611;48.602;9.490;2023-02-15T21:24:48;97860;;;6.6;61.5
68628;BME280;55611;48.602;9.490;2023-02-15T21:27:18;97860;;;6.6;61.5
68628;BME280;55611;48.602;9.490;2023-02-15T21:29:49;97860;;;6.6;61.5
68628;BME280;55611;48.602;9.490;2023-02-15T21:32:19;97870;;;6.9;61.5
68628;BME280;55611;48.602;9.490;2023-02-15T21:34:50;97870;;;7.3;62
68628;BME280;55611;48.602;9.490;2023-02-15T21:37:25;97880;;;7.6;62
68628;BME280;55611;48.602;9.490;2023-02-15T21:39:51;97880;;;7.4;62
68628;BME280;55611;48.602;9.490;2023-02-15T21:42:21;97870;;;7.3;62.5
68628;BME280;55611;48.602;9.490;2023-02-15T21:44:52;97870;;;7.3;62.5
68628;BME280;55611;48.602;9.490;2023-02-15T21:47:26;97870;;;7.3;62.5
68628;BME280;55611;48.602;9.490;2023-02-15T21:49:53;97880;;;7.4;62.5
68628;BME280;55611;48.602;9.490;2023-02-15T21:52:23;97870;;;7.3;62.5
68628;BME280;55611;48.602;9.490;2023-02-15T21:54:54;97880;;;7.2;62
68628;BME280;55611;48.602;9.490;2023-02-15T21:57:24;97880;;;7;62
68628;BME280;55611;48.602;9.490;2023-02-15T21:59:55;97870;;;7;62
68628;BME280;55611;48.602;9.490;2023-02-15T22:02:27;97870;;;6.9;62
68628;BME280;55611;48.602;9.490;2023-02-15T22:04:56;97870;;;6.8;61.5
68628;BME280;55611;48.602;9.490;2023-02-15T22:07:26;97870;;;6.6;61.5
68628;BME280;55611;48.602;9.490;2023-02-15T22:12:27;97870;;;6.4;61.5
68628;BME280;55611;48.602;9.490;2023-02-15T22:14:58;97860;;;6.2;61.5
68628;BME280;55611;48.602;9.490;2023-02-15T22:17:29;97850;;;6;61.5
68628;BME280;55611;48.602;9.490;2023-02-15T22:19:59;97850;;;5.9;61.5
68628;BME280;55611;48.602;9.490;2023-02-15T22:22:30;97850;;;5.9;61.5
68628;BME280;55611;48.602;9.490;2023-02-15T22:25:00;97850;;;5.8;61.5
68628;BME280;55611;48.602;9.490;2023-02-15T22:27:34;97850;;;5.8;61.5
68628;BME280;55611;48.602;9.490;2023-02-15T22:30:01;97860;;;5.9;61.5
68628;BME280;55611;48.602;9.490;2023-02-15T22:32:32;97860;;;5.9;61.5
68628;BME280;55611;48.602;9.490;2023-02-15T22:35:02;97870;;;6;61.5
68628;BME280;55611;48.602;9.490;2023-02-15T22:37:33;97870;;;6;61.5
68628;BME280;55611;48.602;9.490;2023-02-15T22:40:04;97870;;;5.9;61.5
68628;BME280;55611;48.602;9.490;2023-02-15T22:42:34;97880;;;5.8;61.5
68628;BME280;55611;48.602;9.490;2023-02-15T22:45:04;97880;;;5.8;61.5
68628;BME280;55611;48.602;9.490;2023-02-15T22:47:35;97880;;;5.8;61.5
68628;BME280;55611;48.602;9.490;2023-02-15T22:50:13;97880;;;5.6;61.5
68628;BME280;55611;48.602;9.490;2023-02-15T22:52:36;97880;;;5.5;61.5
68628;BME280;55611;48.602;9.490;2023-02-15T22:55:06;97880;;;5.4;61.5
68628;BME280;55611;48.602;9.490;2023-02-15T22:57:37;97880;;;5.3;61.5
68628;BME280;55611;48.602;9.490;2023-02-15T23:00:08;97890;;;5.2;61.5
68628;BME280;55611;48.602;9.490;2023-02-15T23:02:38;97880;;;5.1;61.5
68628;BME280;55611;48.602;9.490;2023-02-15T23:05:17;97890;;;5.1;61.5
68628;BME280;55611;48.602;9.490;2023-02-15T23:07:39;97890;;;5.1;61.5
68628;BME280;55611;48.602;9.490;2023-02-15T23:10:10;97890;;;5.1;61.5
68628;BME280;55611;48.602;9.490;2023-02-15T23:12:41;97890;;;5.1;61.5
68628;BME280;55611;48.602;9.490;2023-02-15T23:15:10;97890;;;5.1;61.5
68628;BME280;55611;48.602;9.490;2023-02-15T23:17:41;97900;;;5.1;61.5
68628;BME280;55611;48.602;9.490;2023-02-15T23:20:12;97890;;;5.2;61.5
68628;BME280;55611;48.602;9.490;2023-02-15T23:22:42;97890;;;5.3;61.5
68628;BME280;55611;48.602;9.490;2023-02-15T23:25:12;97890;;;5.3;61.5
68628;BME280;55611;48.602;9.490;2023-02-15T23:27:43;97890;;;5.2;61.5
68628;BME280;55611;48.602;9.490;2023-02-15T23:30:14;97900;;;5.1;61.5
68628;BME280;55611;48.602;9.490;2023-02-15T23:32:44;97900;;;5.1;61.5
68628;BME280;55611;48.602;9.490;2023-02-15T23:35:15;97900;;;5;61.5
68628;BME280;55611;48.602;9.490;2023-02-15T23:37:45;97910;;;4.9;61.5
68628;BME280;55611;48.602;9.490;2023-02-15T23:40:16;97910;;;4.9;61.5
68628;BME280;55611;48.602;9.490;2023-02-15T23:42:46;97910;;;4.8;61.5
68628;BME280;55611;48.602;9.490;2023-02-15T23:45:20;97910;;;4.7;61.5
68628;BME280;55611;48.602;9.490;2023-02-15T23:47:47;97900;;;4.5;62
68628;BME280;55611;48.602;9.490;2023-02-15T23:50:19;97920;;;4.4;62
68628;BME280;55611;48.602;9.490;2023-02-15T23:52:49;97910;;;4.5;62
68628;BME280;55611;48.602;9.490;2023-02-15T23:55:19;97910;;;4.6;61.5
68628;BME280;55611;48.602;9.490;2023-02-15T23:57:49;97910;;;4.7;61.5
